sensor_id;sensor_type;location;lat;lon;timestamp;P1;durP1;ratioP1;P2;durP2;ratioP2
56181;SDS011;51963;46.052;14.544;2023-05-02T00:00:27;12.05;;;8.63;;
56181;SDS011;51963;46.052;14.544;2023-05-02T00:02:55;13.82;;;9.50;;
56181;SDS011;51963;46.052;14.544;2023-05-02T00:05:21;12.70;;;10.25;;
56181;SDS011;51963;46.052;14.544;2023-05-02T00:07:47;12.98;;;10.15;;
56181;SDS011;51963;46.052;14.544;2023-05-02T00:10:13;17.08;;;10.85;;
56181;SDS011;51963;46.052;14.544;2023-05-02T00:12:38;13.93;;;9.60;;
56181;SDS011;51963;46.052;14.544;2023-05-02T00:15:04;12.57;;;8.60;;
56181;SDS011;51963;46.052;14.544;2023-05-02T00:17:31;10.75;;;7.68;;
56181;SDS011;51963;46.052;14.544;2023-05-02T00:19:56;10.98;;;7.70;;
56181;SDS011;51963;46.052;14.544;2023-05-02T00:22:22;13.77;;;9.27;;
56181;SDS011;51963;46.052;14.544;2023-05-02T00:24:48;12.52;;;8.48;;
56181;SDS011;51963;46.052;14.544;2023-05-02T00:27:13;11.57;;;8.23;;
56181;SDS011;51963;46.052;14.544;2023-05-02T00:29:39;11.65;;;8.07;;
56181;SDS011;51963;46.052;14.544;2023-05-02T00:32:05;10.25;;;7.53;;
56181;SDS011;51963;46.052;14.544;2023-05-02T00:34:31;10.77;;;7.93;;
56181;SDS011;51963;46.052;14.544;2023-05-02T00:36:57;9.48;;;7.53;;
56181;SDS011;51963;46.052;14.544;2023-05-02T00:39:23;10.63;;;7.63;;
56181;SDS011;51963;46.052;14.544;2023-05-02T00:41:56;13.35;;;8.57;;
56181;SDS011;51963;46.052;14.544;2023-05-02T00:44:23;14.05;;;9.48;;
56181;SDS011;51963;46.052;14.544;2023-05-02T00:46:48;13.90;;;10.05;;
56181;SDS011;51963;46.052;14.544;2023-05-02T00:49:15;15.98;;;10.93;;
56181;SDS011;51963;46.052;14.544;2023-05-02T00:51:41;16.58;;;11.95;;
56181;SDS011;51963;46.052;14.544;2023-05-02T00:54:06;16.35;;;11.23;;
56181;SDS011;51963;46.052;14.544;2023-05-02T00:56:32;17.63;;;10.93;;
56181;SDS011;51963;46.052;14.544;2023-05-02T00:58:58;16.80;;;11.98;;
56181;SDS011;51963;46.052;14.544;2023-05-02T01:13:06;22.15;;;13.43;;
56181;SDS011;51963;46.052;14.544;2023-05-02T01:15:39;23.65;;;13.50;;
56181;SDS011;51963;46.052;14.544;2023-05-02T01:18:10;21.90;;;12.73;;
56181;SDS011;51963;46.052;14.544;2023-05-02T01:20:38;21.85;;;13.50;;
56181;SDS011;51963;46.052;14.544;2023-05-02T01:23:13;17.20;;;11.98;;
56181;SDS011;51963;46.052;14.544;2023-05-02T01:28:54;18.48;;;11.98;;
56181;SDS011;51963;46.052;14.544;2023-05-02T01:31:56;21.17;;;13.57;;
56181;SDS011;51963;46.052;14.544;2023-05-02T01:34:16;20.48;;;13.63;;
56181;SDS011;51963;46.052;14.544;2023-05-02T01:36:44;21.55;;;13.93;;
56181;SDS011;51963;46.052;14.544;2023-05-02T01:39:14;20.83;;;14.35;;
56181;SDS011;51963;46.052;14.544;2023-05-02T01:41:45;25.02;;;16.83;;
56181;SDS011;51963;46.052;14.544;2023-05-02T01:44:16;29.95;;;18.88;;
56181;SDS011;51963;46.052;14.544;2023-05-02T01:46:44;31.05;;;19.50;;
56181;SDS011;51963;46.052;14.544;2023-05-02T01:49:10;31.58;;;20.20;;
56181;SDS011;51963;46.052;14.544;2023-05-02T01:51:39;33.00;;;20.08;;
56181;SDS011;51963;46.052;14.544;2023-05-02T01:54:17;34.85;;;22.75;;
56181;SDS011;51963;46.052;14.544;2023-05-02T01:56:46;36.35;;;23.35;;
56181;SDS011;51963;46.052;14.544;2023-05-02T01:59:17;36.17;;;22.88;;
56181;SDS011;51963;46.052;14.544;2023-05-02T02:01:44;36.70;;;23.23;;
56181;SDS011;51963;46.052;14.544;2023-05-02T02:04:11;33.70;;;21.80;;
56181;SDS011;51963;46.052;14.544;2023-05-02T02:06:40;35.78;;;22.20;;
56181;SDS011;51963;46.052;14.544;2023-05-02T02:09:08;30.83;;;19.15;;
56181;SDS011;51963;46.052;14.544;2023-05-02T02:11:35;37.83;;;24.23;;
56181;SDS011;51963;46.052;14.544;2023-05-02T02:14:11;38.70;;;22.10;;
56181;SDS011;51963;46.052;14.544;2023-05-02T02:16:42;32.38;;;21.58;;
56181;SDS011;51963;46.052;14.544;2023-05-02T02:19:09;23.08;;;15.38;;
56181;SDS011;51963;46.052;14.544;2023-05-02T02:21:39;27.08;;;17.33;;
56181;SDS011;51963;46.052;14.544;2023-05-02T02:24:15;24.88;;;15.57;;
56181;SDS011;51963;46.052;14.544;2023-05-02T02:29:08;19.50;;;12.23;;
56181;SDS011;51963;46.052;14.544;2023-05-02T02:31:34;21.25;;;13.15;;
56181;SDS011;51963;46.052;14.544;2023-05-02T02:34:02;18.45;;;12.15;;
56181;SDS011;51963;46.052;14.544;2023-05-02T02:39:09;20.88;;;12.68;;
56181;SDS011;51963;46.052;14.544;2023-05-02T02:44:40;18.10;;;12.00;;
56181;SDS011;51963;46.052;14.544;2023-05-02T02:50:15;19.27;;;11.77;;
56181;SDS011;51963;46.052;14.544;2023-05-02T02:55:19;14.90;;;10.38;;
56181;SDS011;51963;46.052;14.544;2023-05-02T02:57:58;14.60;;;9.43;;
56181;SDS011;51963;46.052;14.544;2023-05-02T03:00:28;15.65;;;10.00;;
56181;SDS011;51963;46.052;14.544;2023-05-02T03:02:56;13.45;;;8.57;;
56181;SDS011;51963;46.052;14.544;2023-05-02T03:05:22;11.88;;;8.80;;
56181;SDS011;51963;46.052;14.544;2023-05-02T03:07:48;9.95;;;6.05;;
56181;SDS011;51963;46.052;14.544;2023-05-02T03:10:15;6.18;;;4.90;;
56181;SDS011;51963;46.052;14.544;2023-05-02T03:12:41;5.90;;;4.22;;
56181;SDS011;51963;46.052;14.544;2023-05-02T03:15:13;6.07;;;3.95;;
56181;SDS011;51963;46.052;14.544;2023-05-02T03:17:40;5.40;;;3.75;;
56181;SDS011;51963;46.052;14.544;2023-05-02T03:20:06;6.00;;;3.58;;
56181;SDS011;51963;46.052;14.544;2023-05-02T03:22:32;4.45;;;3.67;;
56181;SDS011;51963;46.052;14.544;2023-05-02T03:24:59;4.90;;;3.70;;
56181;SDS011;51963;46.052;14.544;2023-05-02T03:27:25;4.63;;;3.53;;
56181;SDS011;51963;46.052;14.544;2023-05-02T03:29:51;4.95;;;3.95;;
56181;SDS011;51963;46.052;14.544;2023-05-02T03:32:17;4.32;;;3.40;;
56181;SDS011;51963;46.052;14.544;2023-05-02T03:34:45;4.35;;;3.42;;
56181;SDS011;51963;46.052;14.544;2023-05-02T03:37:11;4.55;;;3.53;;
56181;SDS011;51963;46.052;14.544;2023-05-02T03:39:37;5.05;;;4.22;;
56181;SDS011;51963;46.052;14.544;2023-05-02T03:42:03;4.70;;;3.58;;
56181;SDS011;51963;46.052;14.544;2023-05-02T03:44:30;7.23;;;4.50;;
56181;SDS011;51963;46.052;14.544;2023-05-02T03:46:56;4.97;;;3.88;;
56181;SDS011;51963;46.052;14.544;2023-05-02T03:49:22;6.13;;;4.25;;
56181;SDS011;51963;46.052;14.544;2023-05-02T03:51:50;6.40;;;4.03;;
56181;SDS011;51963;46.052;14.544;2023-05-02T03:54:22;5.65;;;3.85;;
56181;SDS011;51963;46.052;14.544;2023-05-02T03:56:48;6.88;;;3.88;;
56181;SDS011;51963;46.052;14.544;2023-05-02T03:59:23;6.35;;;4.13;;
56181;SDS011;51963;46.052;14.544;2023-05-02T04:01:49;5.00;;;4.15;;
56181;SDS011;51963;46.052;14.544;2023-05-02T04:04:19;7.10;;;4.05;;
56181;SDS011;51963;46.052;14.544;2023-05-02T04:06:49;6.18;;;4.70;;
56181;SDS011;51963;46.052;14.544;2023-05-02T04:09:15;5.63;;;4.15;;
56181;SDS011;51963;46.052;14.544;2023-05-02T04:11:50;4.82;;;3.88;;
56181;SDS011;51963;46.052;14.544;2023-05-02T04:14:17;4.50;;;3.63;;
56181;SDS011;51963;46.052;14.544;2023-05-02T04:16:50;4.90;;;3.80;;
56181;SDS011;51963;46.052;14.544;2023-05-02T04:21:47;6.78;;;4.30;;
56181;SDS011;51963;46.052;14.544;2023-05-02T04:24:13;6.88;;;4.40;;
56181;SDS011;51963;46.052;14.544;2023-05-02T04:26:39;6.03;;;4.40;;
56181;SDS011;51963;46.052;14.544;2023-05-02T04:29:09;6.35;;;5.28;;
56181;SDS011;51963;46.052;14.544;2023-05-02T04:31:35;6.00;;;4.82;;
56181;SDS011;51963;46.052;14.544;2023-05-02T04:34:01;6.70;;;4.65;;
56181;SDS011;51963;46.052;14.544;2023-05-02T04:36:33;6.93;;;4.80;;
56181;SDS011;51963;46.052;14.544;2023-05-02T04:39:00;6.50;;;5.30;;
56181;SDS011;51963;46.052;14.544;2023-05-02T04:41:30;7.03;;;4.85;;
56181;SDS011;51963;46.052;14.544;2023-05-02T04:44:02;10.13;;;5.50;;
56181;SDS011;51963;46.052;14.544;2023-05-02T04:46:28;5.72;;;4.53;;
56181;SDS011;51963;46.052;14.544;2023-05-02T04:48:55;6.72;;;4.35;;
56181;SDS011;51963;46.052;14.544;2023-05-02T04:51:20;6.35;;;4.28;;
56181;SDS011;51963;46.052;14.544;2023-05-02T04:53:48;10.77;;;6.47;;
56181;SDS011;51963;46.052;14.544;2023-05-02T04:56:14;5.53;;;4.10;;
56181;SDS011;51963;46.052;14.544;2023-05-02T04:58:41;8.43;;;4.68;;
56181;SDS011;51963;46.052;14.544;2023-05-02T05:01:08;6.72;;;4.85;;
56181;SDS011;51963;46.052;14.544;2023-05-02T05:06:02;8.88;;;4.95;;
56181;SDS011;51963;46.052;14.544;2023-05-02T05:08:28;6.00;;;4.85;;
56181;SDS011;51963;46.052;14.544;2023-05-02T05:10:55;5.53;;;4.47;;
56181;SDS011;51963;46.052;14.544;2023-05-02T05:13:22;8.02;;;4.70;;
56181;SDS011;51963;46.052;14.544;2023-05-02T05:15:49;6.63;;;4.78;;
56181;SDS011;51963;46.052;14.544;2023-05-02T05:18:16;8.07;;;5.45;;
56181;SDS011;51963;46.052;14.544;2023-05-02T05:20:42;7.47;;;5.40;;
56181;SDS011;51963;46.052;14.544;2023-05-02T05:23:09;7.85;;;5.63;;
56181;SDS011;51963;46.052;14.544;2023-05-02T05:25:34;8.07;;;5.72;;
56181;SDS011;51963;46.052;14.544;2023-05-02T05:28:00;7.60;;;5.78;;
56181;SDS011;51963;46.052;14.544;2023-05-02T05:30:27;8.30;;;6.00;;
56181;SDS011;51963;46.052;14.544;2023-05-02T05:32:55;8.40;;;6.32;;
56181;SDS011;51963;46.052;14.544;2023-05-02T05:35:25;11.63;;;5.90;;
56181;SDS011;51963;46.052;14.544;2023-05-02T05:37:52;9.73;;;6.22;;
56181;SDS011;51963;46.052;14.544;2023-05-02T05:40:18;9.00;;;6.15;;
56181;SDS011;51963;46.052;14.544;2023-05-02T05:42:50;9.48;;;6.25;;
56181;SDS011;51963;46.052;14.544;2023-05-02T05:45:21;8.98;;;5.97;;
56181;SDS011;51963;46.052;14.544;2023-05-02T05:47:47;8.15;;;5.28;;
56181;SDS011;51963;46.052;14.544;2023-05-02T05:50:13;8.27;;;5.47;;
56181;SDS011;51963;46.052;14.544;2023-05-02T05:52:40;8.02;;;5.93;;
56181;SDS011;51963;46.052;14.544;2023-05-02T05:55:06;9.07;;;6.13;;
56181;SDS011;51963;46.052;14.544;2023-05-02T05:57:32;8.23;;;5.88;;
56181;SDS011;51963;46.052;14.544;2023-05-02T05:59:58;7.97;;;6.05;;
56181;SDS011;51963;46.052;14.544;2023-05-02T06:02:24;10.43;;;6.13;;
56181;SDS011;51963;46.052;14.544;2023-05-02T06:04:51;9.85;;;6.53;;
56181;SDS011;51963;46.052;14.544;2023-05-02T06:07:26;10.98;;;7.55;;
56181;SDS011;51963;46.052;14.544;2023-05-02T06:09:52;11.52;;;7.50;;
56181;SDS011;51963;46.052;14.544;2023-05-02T06:12:17;10.30;;;7.57;;
56181;SDS011;51963;46.052;14.544;2023-05-02T06:14:44;11.48;;;8.23;;
56181;SDS011;51963;46.052;14.544;2023-05-02T06:17:13;12.45;;;8.50;;
56181;SDS011;51963;46.052;14.544;2023-05-02T06:19:38;12.70;;;9.18;;
56181;SDS011;51963;46.052;14.544;2023-05-02T06:22:05;13.20;;;9.00;;
56181;SDS011;51963;46.052;14.544;2023-05-02T06:24:31;13.90;;;8.93;;
56181;SDS011;51963;46.052;14.544;2023-05-02T06:26:57;12.95;;;8.52;;
56181;SDS011;51963;46.052;14.544;2023-05-02T06:29:24;12.48;;;8.45;;
56181;SDS011;51963;46.052;14.544;2023-05-02T06:31:50;12.25;;;8.82;;
56181;SDS011;51963;46.052;14.544;2023-05-02T06:34:24;10.85;;;8.18;;
56181;SDS011;51963;46.052;14.544;2023-05-02T06:36:54;10.73;;;8.20;;
56181;SDS011;51963;46.052;14.544;2023-05-02T06:39:21;10.63;;;8.02;;
56181;SDS011;51963;46.052;14.544;2023-05-02T06:41:47;13.10;;;7.85;;
56181;SDS011;51963;46.052;14.544;2023-05-02T06:44:16;11.07;;;8.07;;
56181;SDS011;51963;46.052;14.544;2023-05-02T06:46:42;10.32;;;7.88;;
56181;SDS011;51963;46.052;14.544;2023-05-02T06:49:08;13.20;;;8.50;;
56181;SDS011;51963;46.052;14.544;2023-05-02T06:51:35;11.00;;;7.60;;
56181;SDS011;51963;46.052;14.544;2023-05-02T06:54:00;13.40;;;8.38;;
56181;SDS011;51963;46.052;14.544;2023-05-02T06:56:26;14.18;;;9.43;;
56181;SDS011;51963;46.052;14.544;2023-05-02T06:58:52;13.73;;;9.73;;
56181;SDS011;51963;46.052;14.544;2023-05-02T07:01:18;12.77;;;9.70;;
56181;SDS011;51963;46.052;14.544;2023-05-02T07:03:44;19.42;;;11.23;;
56181;SDS011;51963;46.052;14.544;2023-05-02T07:06:13;12.48;;;9.35;;
56181;SDS011;51963;46.052;14.544;2023-05-02T07:11:04;14.25;;;9.30;;
56181;SDS011;51963;46.052;14.544;2023-05-02T07:13:30;12.55;;;7.88;;
56181;SDS011;51963;46.052;14.544;2023-05-02T07:15:57;9.05;;;7.10;;
56181;SDS011;51963;46.052;14.544;2023-05-02T07:18:24;8.20;;;7.00;;
56181;SDS011;51963;46.052;14.544;2023-05-02T07:20:50;8.38;;;6.45;;
56181;SDS011;51963;46.052;14.544;2023-05-02T07:23:15;10.45;;;6.88;;
56181;SDS011;51963;46.052;14.544;2023-05-02T07:25:41;9.52;;;6.13;;
56181;SDS011;51963;46.052;14.544;2023-05-02T07:28:08;11.82;;;7.43;;
56181;SDS011;51963;46.052;14.544;2023-05-02T07:30:35;12.38;;;7.43;;
56181;SDS011;51963;46.052;14.544;2023-05-02T07:33:01;10.60;;;7.50;;
56181;SDS011;51963;46.052;14.544;2023-05-02T07:35:27;10.43;;;7.35;;
56181;SDS011;51963;46.052;14.544;2023-05-02T07:37:53;8.93;;;6.43;;
56181;SDS011;51963;46.052;14.544;2023-05-02T07:40:18;9.27;;;7.00;;
56181;SDS011;51963;46.052;14.544;2023-05-02T07:42:45;8.90;;;6.50;;
56181;SDS011;51963;46.052;14.544;2023-05-02T07:45:10;8.73;;;6.18;;
56181;SDS011;51963;46.052;14.544;2023-05-02T07:47:36;8.48;;;6.55;;
56181;SDS011;51963;46.052;14.544;2023-05-02T07:50:02;10.88;;;6.45;;
56181;SDS011;51963;46.052;14.544;2023-05-02T07:52:29;7.65;;;5.70;;
56181;SDS011;51963;46.052;14.544;2023-05-02T07:54:54;9.25;;;5.90;;
56181;SDS011;51963;46.052;14.544;2023-05-02T07:57:23;8.02;;;6.13;;
56181;SDS011;51963;46.052;14.544;2023-05-02T07:59:49;7.78;;;6.13;;
56181;SDS011;51963;46.052;14.544;2023-05-02T08:02:15;11.63;;;7.40;;
56181;SDS011;51963;46.052;14.544;2023-05-02T08:04:44;9.75;;;7.93;;
56181;SDS011;51963;46.052;14.544;2023-05-02T08:07:11;11.07;;;7.63;;
56181;SDS011;51963;46.052;14.544;2023-05-02T08:09:37;13.63;;;8.20;;
56181;SDS011;51963;46.052;14.544;2023-05-02T08:12:03;11.35;;;8.18;;
56181;SDS011;51963;46.052;14.544;2023-05-02T08:14:29;12.40;;;7.85;;
56181;SDS011;51963;46.052;14.544;2023-05-02T08:16:58;11.25;;;7.72;;
56181;SDS011;51963;46.052;14.544;2023-05-02T08:19:24;10.05;;;7.60;;
56181;SDS011;51963;46.052;14.544;2023-05-02T08:21:52;12.20;;;8.15;;
56181;SDS011;51963;46.052;14.544;2023-05-02T08:24:18;24.30;;;11.35;;
56181;SDS011;51963;46.052;14.544;2023-05-02T08:26:44;14.77;;;9.00;;
56181;SDS011;51963;46.052;14.544;2023-05-02T08:29:12;10.43;;;7.90;;
56181;SDS011;51963;46.052;14.544;2023-05-02T08:31:38;12.63;;;7.78;;
56181;SDS011;51963;46.052;14.544;2023-05-02T08:34:05;10.60;;;7.50;;
56181;SDS011;51963;46.052;14.544;2023-05-02T08:36:30;11.13;;;7.07;;
56181;SDS011;51963;46.052;14.544;2023-05-02T08:38:56;8.60;;;6.43;;
56181;SDS011;51963;46.052;14.544;2023-05-02T08:41:22;7.20;;;5.32;;
56181;SDS011;51963;46.052;14.544;2023-05-02T08:43:48;6.15;;;4.63;;
56181;SDS011;51963;46.052;14.544;2023-05-02T08:46:14;6.18;;;4.30;;
56181;SDS011;51963;46.052;14.544;2023-05-02T08:48:42;5.70;;;3.65;;
56181;SDS011;51963;46.052;14.544;2023-05-02T08:51:16;5.73;;;3.97;;
56181;SDS011;51963;46.052;14.544;2023-05-02T08:53:42;5.28;;;3.78;;
56181;SDS011;51963;46.052;14.544;2023-05-02T08:56:09;5.28;;;4.40;;
56181;SDS011;51963;46.052;14.544;2023-05-02T09:01:12;7.72;;;4.28;;
56181;SDS011;51963;46.052;14.544;2023-05-02T09:03:39;5.75;;;4.53;;
56181;SDS011;51963;46.052;14.544;2023-05-02T09:06:08;5.80;;;4.32;;
56181;SDS011;51963;46.052;14.544;2023-05-02T09:08:35;7.30;;;4.55;;
56181;SDS011;51963;46.052;14.544;2023-05-02T09:11:01;6.80;;;4.78;;
56181;SDS011;51963;46.052;14.544;2023-05-02T09:15:58;8.07;;;6.18;;
56181;SDS011;51963;46.052;14.544;2023-05-02T09:18:29;8.75;;;6.43;;
56181;SDS011;51963;46.052;14.544;2023-05-02T09:21:08;10.02;;;7.40;;
56181;SDS011;51963;46.052;14.544;2023-05-02T09:23:39;8.48;;;6.47;;
56181;SDS011;51963;46.052;14.544;2023-05-02T09:26:22;10.23;;;7.72;;
56181;SDS011;51963;46.052;14.544;2023-05-02T09:29:02;11.90;;;7.80;;
56181;SDS011;51963;46.052;14.544;2023-05-02T09:31:30;10.25;;;7.35;;
56181;SDS011;51963;46.052;14.544;2023-05-02T09:34:07;9.68;;;7.80;;
56181;SDS011;51963;46.052;14.544;2023-05-02T09:36:37;10.10;;;6.68;;
56181;SDS011;51963;46.052;14.544;2023-05-02T09:39:16;9.52;;;7.13;;
56181;SDS011;51963;46.052;14.544;2023-05-02T09:41:43;8.60;;;6.13;;
56181;SDS011;51963;46.052;14.544;2023-05-02T09:44:11;9.43;;;6.47;;
56181;SDS011;51963;46.052;14.544;2023-05-02T09:46:39;9.93;;;7.50;;
56181;SDS011;51963;46.052;14.544;2023-05-02T09:49:08;10.73;;;6.95;;
56181;SDS011;51963;46.052;14.544;2023-05-02T09:51:34;9.23;;;6.40;;
56181;SDS011;51963;46.052;14.544;2023-05-02T09:54:00;8.88;;;6.43;;
56181;SDS011;51963;46.052;14.544;2023-05-02T09:56:26;8.07;;;6.53;;
56181;SDS011;51963;46.052;14.544;2023-05-02T09:59:10;10.77;;;8.05;;
56181;SDS011;51963;46.052;14.544;2023-05-02T10:01:39;10.20;;;7.20;;
56181;SDS011;51963;46.052;14.544;2023-05-02T10:04:09;10.88;;;8.32;;
56181;SDS011;51963;46.052;14.544;2023-05-02T10:06:43;10.80;;;7.50;;
56181;SDS011;51963;46.052;14.544;2023-05-02T10:09:10;10.38;;;7.65;;
56181;SDS011;51963;46.052;14.544;2023-05-02T10:11:37;12.07;;;8.85;;
56181;SDS011;51963;46.052;14.544;2023-05-02T10:14:07;11.10;;;8.43;;
56181;SDS011;51963;46.052;14.544;2023-05-02T10:16:33;10.55;;;8.68;;
56181;SDS011;51963;46.052;14.544;2023-05-02T10:21:51;11.63;;;8.30;;
56181;SDS011;51963;46.052;14.544;2023-05-02T10:24:18;10.38;;;8.18;;
56181;SDS011;51963;46.052;14.544;2023-05-02T10:26:45;15.60;;;8.38;;
56181;SDS011;51963;46.052;14.544;2023-05-02T10:29:12;11.55;;;7.45;;
56181;SDS011;51963;46.052;14.544;2023-05-02T10:31:39;11.63;;;7.97;;
56181;SDS011;51963;46.052;14.544;2023-05-02T10:34:07;12.73;;;8.45;;
56181;SDS011;51963;46.052;14.544;2023-05-02T10:36:35;11.75;;;8.30;;
56181;SDS011;51963;46.052;14.544;2023-05-02T10:39:02;13.25;;;9.23;;
56181;SDS011;51963;46.052;14.544;2023-05-02T10:41:29;13.23;;;9.32;;
56181;SDS011;51963;46.052;14.544;2023-05-02T10:43:59;12.43;;;8.85;;
56181;SDS011;51963;46.052;14.544;2023-05-02T10:46:33;12.00;;;8.68;;
56181;SDS011;51963;46.052;14.544;2023-05-02T10:49:06;12.82;;;8.75;;
56181;SDS011;51963;46.052;14.544;2023-05-02T10:51:34;13.20;;;8.77;;
56181;SDS011;51963;46.052;14.544;2023-05-02T10:54:22;9.05;;;7.03;;
56181;SDS011;51963;46.052;14.544;2023-05-02T10:59:28;6.68;;;5.70;;
56181;SDS011;51963;46.052;14.544;2023-05-02T11:01:56;13.38;;;8.32;;
56181;SDS011;51963;46.052;14.544;2023-05-02T11:04:22;8.20;;;5.20;;
56181;SDS011;51963;46.052;14.544;2023-05-02T11:11:49;8.43;;;4.88;;
56181;SDS011;51963;46.052;14.544;2023-05-02T11:19:25;10.65;;;4.78;;
56181;SDS011;51963;46.052;14.544;2023-05-02T11:24:43;6.70;;;3.60;;
56181;SDS011;51963;46.052;14.544;2023-05-02T11:29:57;4.95;;;3.58;;
56181;SDS011;51963;46.052;14.544;2023-05-02T11:32:24;4.00;;;3.38;;
56181;SDS011;51963;46.052;14.544;2023-05-02T11:35:20;4.78;;;3.92;;
56181;SDS011;51963;46.052;14.544;2023-05-02T11:37:57;5.75;;;3.92;;
56181;SDS011;51963;46.052;14.544;2023-05-02T11:40:25;6.20;;;4.25;;
56181;SDS011;51963;46.052;14.544;2023-05-02T11:42:52;6.97;;;4.68;;
56181;SDS011;51963;46.052;14.544;2023-05-02T11:45:19;5.68;;;4.25;;
56181;SDS011;51963;46.052;14.544;2023-05-02T11:47:46;7.80;;;4.55;;
56181;SDS011;51963;46.052;14.544;2023-05-02T11:50:13;6.15;;;4.68;;
56181;SDS011;51963;46.052;14.544;2023-05-02T11:52:40;7.63;;;5.18;;
56181;SDS011;51963;46.052;14.544;2023-05-02T11:55:09;6.53;;;5.28;;
56181;SDS011;51963;46.052;14.544;2023-05-02T11:57:39;7.50;;;5.20;;
56181;SDS011;51963;46.052;14.544;2023-05-02T12:00:08;8.43;;;5.55;;
56181;SDS011;51963;46.052;14.544;2023-05-02T12:02:42;6.53;;;4.63;;
56181;SDS011;51963;46.052;14.544;2023-05-02T12:05:10;6.60;;;5.00;;
56181;SDS011;51963;46.052;14.544;2023-05-02T12:10:02;7.72;;;4.78;;
56181;SDS011;51963;46.052;14.544;2023-05-02T12:12:30;5.78;;;4.70;;
56181;SDS011;51963;46.052;14.544;2023-05-02T12:14:56;6.65;;;4.40;;
56181;SDS011;51963;46.052;14.544;2023-05-02T12:17:27;5.82;;;4.65;;
56181;SDS011;51963;46.052;14.544;2023-05-02T12:19:54;5.30;;;4.38;;
56181;SDS011;51963;46.052;14.544;2023-05-02T12:22:21;6.55;;;4.70;;
56181;SDS011;51963;46.052;14.544;2023-05-02T12:24:48;6.57;;;4.80;;
56181;SDS011;51963;46.052;14.544;2023-05-02T12:27:15;6.63;;;4.70;;
56181;SDS011;51963;46.052;14.544;2023-05-02T12:29:42;5.90;;;4.47;;
56181;SDS011;51963;46.052;14.544;2023-05-02T12:32:13;7.63;;;5.00;;
56181;SDS011;51963;46.052;14.544;2023-05-02T12:34:40;6.80;;;5.22;;
56181;SDS011;51963;46.052;14.544;2023-05-02T12:37:06;7.28;;;5.05;;
56181;SDS011;51963;46.052;14.544;2023-05-02T12:39:40;6.90;;;5.15;;
56181;SDS011;51963;46.052;14.544;2023-05-02T12:42:16;6.40;;;4.80;;
56181;SDS011;51963;46.052;14.544;2023-05-02T12:44:44;6.03;;;4.60;;
56181;SDS011;51963;46.052;14.544;2023-05-02T12:47:14;5.97;;;4.93;;
56181;SDS011;51963;46.052;14.544;2023-05-02T12:49:54;9.15;;;5.40;;
56181;SDS011;51963;46.052;14.544;2023-05-02T12:55:18;7.07;;;4.85;;
56181;SDS011;51963;46.052;14.544;2023-05-02T12:57:49;5.45;;;4.80;;
56181;SDS011;51963;46.052;14.544;2023-05-02T13:00:15;5.38;;;4.32;;
56181;SDS011;51963;46.052;14.544;2023-05-02T13:02:42;6.67;;;4.77;;
56181;SDS011;51963;46.052;14.544;2023-05-02T13:05:15;5.18;;;4.20;;
56181;SDS011;51963;46.052;14.544;2023-05-02T13:07:42;6.75;;;4.63;;
56181;SDS011;51963;46.052;14.544;2023-05-02T13:10:08;4.80;;;3.33;;
56181;SDS011;51963;46.052;14.544;2023-05-02T13:12:34;3.60;;;2.90;;
56181;SDS011;51963;46.052;14.544;2023-05-02T13:15:02;4.50;;;3.00;;
56181;SDS011;51963;46.052;14.544;2023-05-02T13:17:29;5.78;;;3.38;;
56181;SDS011;51963;46.052;14.544;2023-05-02T13:19:55;3.42;;;3.13;;
56181;SDS011;51963;46.052;14.544;2023-05-02T13:22:20;3.03;;;2.70;;
56181;SDS011;51963;46.052;14.544;2023-05-02T13:24:49;3.42;;;2.50;;
56181;SDS011;51963;46.052;14.544;2023-05-02T13:27:18;3.95;;;2.53;;
56181;SDS011;51963;46.052;14.544;2023-05-02T13:29:44;3.10;;;2.63;;
56181;SDS011;51963;46.052;14.544;2023-05-02T13:32:10;3.65;;;2.38;;
56181;SDS011;51963;46.052;14.544;2023-05-02T13:34:36;3.08;;;2.40;;
56181;SDS011;51963;46.052;14.544;2023-05-02T13:37:02;3.58;;;2.35;;
56181;SDS011;51963;46.052;14.544;2023-05-02T13:39:28;3.10;;;2.40;;
56181;SDS011;51963;46.052;14.544;2023-05-02T13:41:53;3.50;;;2.70;;
56181;SDS011;51963;46.052;14.544;2023-05-02T13:44:19;3.80;;;2.70;;
56181;SDS011;51963;46.052;14.544;2023-05-02T13:46:46;3.75;;;2.63;;
56181;SDS011;51963;46.052;14.544;2023-05-02T13:49:12;3.10;;;2.80;;
56181;SDS011;51963;46.052;14.544;2023-05-02T13:51:38;3.67;;;2.80;;
56181;SDS011;51963;46.052;14.544;2023-05-02T13:54:09;3.58;;;2.30;;
56181;SDS011;51963;46.052;14.544;2023-05-02T13:56:35;4.45;;;2.65;;
56181;SDS011;51963;46.052;14.544;2023-05-02T13:59:01;3.53;;;2.50;;
56181;SDS011;51963;46.052;14.544;2023-05-02T14:01:27;5.60;;;3.00;;
56181;SDS011;51963;46.052;14.544;2023-05-02T14:03:53;3.58;;;2.63;;
56181;SDS011;51963;46.052;14.544;2023-05-02T14:06:18;4.75;;;2.80;;
56181;SDS011;51963;46.052;14.544;2023-05-02T14:08:44;3.72;;;2.35;;
56181;SDS011;51963;46.052;14.544;2023-05-02T14:11:11;4.93;;;3.60;;
56181;SDS011;51963;46.052;14.544;2023-05-02T14:13:39;3.47;;;2.70;;
56181;SDS011;51963;46.052;14.544;2023-05-02T14:16:05;4.20;;;2.85;;
56181;SDS011;51963;46.052;14.544;2023-05-02T14:18:31;3.33;;;2.72;;
56181;SDS011;51963;46.052;14.544;2023-05-02T14:20:57;2.92;;;2.17;;
56181;SDS011;51963;46.052;14.544;2023-05-02T14:23:26;4.05;;;2.33;;
56181;SDS011;51963;46.052;14.544;2023-05-02T14:25:53;3.40;;;2.70;;
56181;SDS011;51963;46.052;14.544;2023-05-02T14:28:19;3.60;;;2.28;;
56181;SDS011;51963;46.052;14.544;2023-05-02T14:30:48;2.67;;;2.25;;
56181;SDS011;51963;46.052;14.544;2023-05-02T14:33:14;3.47;;;2.30;;
56181;SDS011;51963;46.052;14.544;2023-05-02T14:35:40;3.90;;;2.45;;
56181;SDS011;51963;46.052;14.544;2023-05-02T14:38:07;3.30;;;2.78;;
56181;SDS011;51963;46.052;14.544;2023-05-02T14:40:33;4.28;;;3.60;;
56181;SDS011;51963;46.052;14.544;2023-05-02T14:42:58;4.53;;;3.28;;
56181;SDS011;51963;46.052;14.544;2023-05-02T14:45:25;6.63;;;4.35;;
56181;SDS011;51963;46.052;14.544;2023-05-02T14:47:50;3.28;;;2.50;;
56181;SDS011;51963;46.052;14.544;2023-05-02T14:50:16;3.97;;;2.67;;
56181;SDS011;51963;46.052;14.544;2023-05-02T14:52:42;5.35;;;2.58;;
56181;SDS011;51963;46.052;14.544;2023-05-02T14:55:11;3.88;;;2.85;;
56181;SDS011;51963;46.052;14.544;2023-05-02T14:57:38;2.87;;;2.57;;
56181;SDS011;51963;46.052;14.544;2023-05-02T15:00:05;4.82;;;2.75;;
56181;SDS011;51963;46.052;14.544;2023-05-02T15:02:36;4.03;;;2.47;;
56181;SDS011;51963;46.052;14.544;2023-05-02T15:05:03;6.00;;;3.03;;
56181;SDS011;51963;46.052;14.544;2023-05-02T15:07:36;3.72;;;2.53;;
56181;SDS011;51963;46.052;14.544;2023-05-02T15:10:02;4.00;;;2.60;;
56181;SDS011;51963;46.052;14.544;2023-05-02T15:12:28;3.28;;;2.35;;
56181;SDS011;51963;46.052;14.544;2023-05-02T15:14:54;4.63;;;3.38;;
56181;SDS011;51963;46.052;14.544;2023-05-02T15:17:20;4.32;;;2.55;;
56181;SDS011;51963;46.052;14.544;2023-05-02T15:19:45;4.28;;;2.97;;
56181;SDS011;51963;46.052;14.544;2023-05-02T15:22:11;3.38;;;2.72;;
56181;SDS011;51963;46.052;14.544;2023-05-02T15:24:37;2.92;;;2.28;;
56181;SDS011;51963;46.052;14.544;2023-05-02T15:27:03;3.33;;;2.45;;
56181;SDS011;51963;46.052;14.544;2023-05-02T15:29:28;4.32;;;2.70;;
56181;SDS011;51963;46.052;14.544;2023-05-02T15:31:54;3.35;;;2.75;;
56181;SDS011;51963;46.052;14.544;2023-05-02T15:34:20;3.10;;;2.40;;
56181;SDS011;51963;46.052;14.544;2023-05-02T15:36:46;4.18;;;2.88;;
56181;SDS011;51963;46.052;14.544;2023-05-02T15:39:11;3.97;;;2.53;;